createdAt,value
2019-05-14T00:00:02.230Z,8.23
2019-05-14T00:01:03.400Z,8.25
2019-05-14T00:02:02.746Z,8.19
2019-05-14T00:03:02.486Z,8.22
2019-05-14T00:04:02.191Z,8.15
2019-05-14T00:05:02.124Z,8.25
2019-05-14T00:06:02.371Z,8.11
2019-05-14T00:07:02.073Z,8.12
2019-05-14T00:08:02.366Z,8.16
2019-05-14T00:09:02.020Z,8.02
2019-05-14T00:10:02.008Z,8.12
2019-05-14T00:11:01.974Z,8.18
2019-05-14T00:12:02.769Z,8.11
2019-05-14T00:13:01.930Z,8.05
2019-05-14T00:14:01.908Z,8.05
2019-05-14T00:15:02.282Z,8.01
2019-05-14T00:16:01.863Z,8.01
2019-05-14T00:17:01.858Z,7.98
2019-05-14T00:18:01.824Z,7.98
2019-05-14T00:19:01.801Z,7.98
2019-05-14T00:20:09.249Z,7.97
2019-05-14T00:21:02.155Z,7.97
2019-05-14T00:22:02.149Z,8.00
2019-05-14T00:23:01.706Z,7.92
2019-05-14T00:24:01.931Z,7.92
2019-05-14T00:25:01.663Z,7.92
2019-05-14T00:26:02.013Z,7.92
2019-05-14T00:27:02.157Z,7.86
2019-05-14T00:28:01.596Z,7.83
2019-05-14T00:29:01.760Z,7.89
2019-05-14T00:30:02.436Z,7.86
2019-05-14T00:31:02.952Z,7.92
2019-05-14T00:32:02.004Z,7.97
2019-05-14T00:33:01.489Z,7.89
2019-05-14T00:34:01.835Z,7.85
2019-05-14T00:35:02.152Z,7.75
2019-05-14T00:36:02.063Z,7.74
2019-05-14T00:37:01.702Z,7.86
2019-05-14T00:38:01.508Z,7.80
2019-05-14T00:39:01.857Z,7.82
2019-05-14T00:40:01.589Z,7.80
2019-05-14T00:41:01.941Z,7.72
2019-05-14T00:42:01.799Z,7.69
2019-05-14T00:43:02.639Z,7.67
2019-05-14T00:44:01.938Z,7.69
2019-05-14T00:45:01.355Z,7.69
2019-05-14T00:46:01.656Z,7.80
2019-05-14T00:47:02.164Z,7.79
2019-05-14T00:48:01.605Z,7.64
2019-05-14T00:49:01.780Z,7.67
2019-05-14T00:50:02.223Z,7.68
2019-05-14T00:51:02.276Z,7.67
2019-05-14T00:52:02.277Z,7.69
2019-05-14T00:53:02.011Z,7.61
2019-05-14T00:54:01.717Z,7.64
2019-05-14T00:55:01.218Z,7.57
2019-05-14T00:56:02.172Z,7.68
2019-05-14T00:57:01.561Z,7.60
2019-05-14T00:58:02.327Z,7.49
2019-05-14T00:59:01.423Z,7.67
2019-05-14T01:00:01.200Z,7.68
2019-05-14T01:01:01.633Z,7.67
2019-05-14T01:02:03.102Z,7.63
2019-05-14T01:03:02.055Z,7.64
2019-05-14T01:04:01.307Z,7.63
2019-05-14T01:05:01.905Z,7.64
2019-05-14T01:06:02.963Z,7.60
2019-05-14T01:07:01.599Z,7.58
2019-05-14T01:08:01.943Z,7.61
2019-05-14T01:09:01.289Z,7.68
2019-05-14T01:10:01.327Z,7.52
2019-05-14T01:11:01.634Z,7.52
2019-05-14T01:12:01.787Z,7.55
2019-05-14T01:13:01.151Z,7.52
2019-05-14T01:14:01.686Z,7.64
2019-05-14T01:15:09.580Z,7.50
2019-05-14T01:16:01.522Z,7.57
2019-05-14T01:17:02.012Z,7.50
2019-05-14T01:18:02.219Z,7.52
2019-05-14T01:19:02.056Z,7.55
2019-05-14T01:20:02.990Z,7.55
2019-05-14T01:21:01.072Z,7.43
2019-05-14T01:22:01.732Z,7.46
2019-05-14T01:23:02.262Z,7.46
2019-05-14T01:24:01.988Z,7.42
2019-05-14T01:25:01.569Z,7.35
2019-05-14T01:26:02.382Z,7.43
2019-05-14T01:27:01.610Z,7.39
2019-05-14T01:28:02.140Z,7.34
2019-05-14T01:29:01.440Z,7.35
2019-05-14T01:30:02.097Z,7.31
2019-05-14T01:31:01.179Z,7.37
2019-05-14T01:32:01.250Z,7.35
2019-05-14T01:33:01.821Z,7.34
2019-05-14T01:34:02.189Z,7.32
2019-05-14T01:35:01.352Z,7.28
2019-05-14T01:36:02.039Z,7.30
2019-05-14T01:37:02.237Z,7.37
2019-05-14T01:38:02.417Z,7.24
2019-05-14T01:39:01.832Z,7.23
2019-05-14T01:40:01.133Z,7.30
2019-05-14T01:41:01.829Z,7.28
2019-05-14T01:42:02.203Z,7.25
2019-05-14T01:43:02.376Z,7.24
2019-05-14T01:44:01.735Z,7.27
2019-05-14T01:45:02.413Z,7.28
2019-05-14T01:46:02.070Z,7.24
2019-05-14T01:47:01.781Z,7.17
2019-05-14T01:48:01.251Z,7.28
2019-05-14T01:49:01.528Z,7.16
2019-05-14T01:50:01.968Z,7.23
2019-05-14T01:51:01.574Z,7.16
2019-05-14T01:52:01.674Z,7.16
2019-05-14T01:53:01.210Z,7.15
2019-05-14T01:54:01.521Z,7.07
2019-05-14T01:55:01.995Z,7.16
2019-05-14T01:56:01.730Z,7.15
2019-05-14T01:57:01.917Z,7.02
2019-05-14T01:57:59.555Z,7.10
2019-05-14T01:59:01.488Z,7.03
2019-05-14T01:59:59.509Z,7.05
2019-05-14T02:01:01.717Z,6.97
2019-05-14T02:01:59.463Z,7.02
2019-05-14T02:03:01.593Z,6.97
2019-05-14T02:03:59.427Z,6.99
2019-05-14T02:05:01.816Z,6.91
2019-05-14T02:06:01.413Z,6.92
2019-05-14T02:06:59.351Z,7.03
2019-05-14T02:08:01.538Z,6.94
2019-05-14T02:08:59.304Z,6.98
2019-05-14T02:10:01.154Z,6.97
2019-05-14T02:11:01.427Z,6.94
2019-05-14T02:11:59.238Z,7.05
2019-05-14T02:13:01.727Z,6.92
2019-05-14T02:13:59.198Z,7.07
2019-05-14T02:15:01.714Z,6.94
2019-05-14T02:16:01.165Z,6.92
2019-05-14T02:16:59.123Z,6.92
2019-05-14T02:17:59.101Z,6.99
2019-05-14T02:19:01.220Z,6.97
2019-05-14T02:19:59.056Z,6.84
2019-05-14T02:21:01.333Z,6.84
2019-05-14T02:21:59.014Z,6.84
2019-05-14T02:23:01.321Z,6.81
2019-05-14T02:23:58.964Z,6.79
2019-05-14T02:24:58.943Z,6.61
2019-05-14T02:25:58.920Z,6.61
2019-05-14T02:26:58.907Z,6.66
2019-05-14T02:28:01.166Z,6.59
2019-05-14T02:28:58.849Z,6.62
2019-05-14T02:30:01.483Z,6.62
2019-05-14T02:31:03.150Z,6.71
2019-05-14T02:31:59.032Z,6.76
2019-05-14T02:32:59.555Z,6.76
2019-05-14T02:33:59.168Z,6.81
2019-05-14T02:34:59.041Z,6.85
2019-05-14T02:35:59.905Z,6.97
2019-05-14T02:37:00.363Z,6.87
2019-05-14T02:37:59.648Z,6.87
2019-05-14T02:39:00.315Z,6.79
2019-05-14T02:39:59.652Z,6.62
2019-05-14T02:40:59.976Z,6.54
2019-05-14T02:41:59.085Z,6.43
2019-05-14T02:42:59.277Z,6.41
2019-05-14T02:43:59.437Z,6.40
2019-05-14T02:44:59.263Z,6.40
2019-05-14T02:46:10.051Z,6.40
2019-05-14T02:46:59.180Z,6.33
2019-05-14T02:48:00.418Z,6.37
2019-05-14T02:48:59.540Z,6.38
2019-05-14T02:49:58.944Z,6.40
2019-05-14T02:50:59.811Z,6.38
2019-05-14T02:51:58.974Z,6.38
2019-05-14T02:52:59.796Z,6.31
2019-05-14T02:53:59.148Z,6.34
2019-05-14T02:54:59.674Z,6.18
2019-05-14T02:55:59.265Z,6.18
2019-05-14T02:56:59.932Z,6.04
2019-05-14T02:57:59.869Z,6.14
2019-05-14T02:59:00.457Z,6.03
2019-05-14T02:59:59.713Z,5.82
2019-05-14T03:01:00.435Z,5.76
2019-05-14T03:01:59.062Z,5.85
2019-05-14T03:02:59.888Z,5.81
2019-05-14T03:03:59.875Z,5.94
2019-05-14T03:04:59.236Z,5.99
2019-05-14T03:06:00.395Z,6.03
2019-05-14T03:06:59.233Z,6.03
2019-05-14T03:07:59.792Z,6.11
2019-05-14T03:08:59.966Z,6.12
2019-05-14T03:09:59.394Z,6.12
2019-05-14T03:11:00.236Z,6.18
2019-05-14T03:11:59.527Z,6.21
2019-05-14T03:12:59.024Z,6.22
2019-05-14T03:13:59.859Z,6.33
2019-05-14T03:14:58.920Z,6.30
2019-05-14T03:15:59.468Z,6.31
2019-05-14T03:16:59.494Z,6.33
2019-05-14T03:18:00.020Z,6.37
2019-05-14T03:18:59.514Z,6.30
2019-05-14T03:20:00.084Z,6.28
2019-05-14T03:21:00.849Z,6.30
2019-05-14T03:22:00.206Z,6.30
2019-05-14T03:23:07.579Z,6.14
2019-05-14T03:24:00.745Z,6.30
2019-05-14T03:24:59.764Z,6.22
2019-05-14T03:26:00.512Z,6.36
2019-05-14T03:26:58.703Z,6.34
2019-05-14T03:27:59.833Z,6.34
2019-05-14T03:29:00.148Z,6.31
2019-05-14T03:29:58.581Z,6.33
2019-05-14T03:31:02.743Z,6.33
2019-05-14T03:32:02.507Z,6.41
2019-05-14T03:33:02.609Z,6.37
2019-05-14T03:34:02.424Z,6.44
2019-05-14T03:35:02.935Z,6.37
2019-05-14T03:36:07.174Z,6.41
2019-05-14T03:37:02.497Z,6.43
2019-05-14T03:38:00.168Z,6.41
2019-05-14T03:38:59.375Z,6.38
2019-05-14T03:39:59.478Z,6.43
2019-05-14T03:40:59.991Z,6.48
2019-05-14T03:41:59.060Z,6.51
2019-05-14T03:42:59.841Z,6.43
2019-05-14T03:43:59.809Z,6.51
2019-05-14T03:44:59.699Z,6.59
2019-05-14T03:45:59.312Z,6.56
2019-05-14T03:47:04.453Z,6.49
2019-05-14T03:47:58.845Z,6.58
2019-05-14T03:48:59.976Z,6.59
2019-05-14T03:49:58.807Z,6.58
2019-05-14T03:51:00.165Z,6.56
2019-05-14T03:52:00.048Z,6.61
2019-05-14T03:52:59.421Z,6.59
2019-05-14T03:54:06.557Z,6.62
2019-05-14T03:55:01.162Z,6.62
2019-05-14T03:55:59.701Z,6.66
2019-05-14T03:57:00.124Z,6.66
2019-05-14T03:57:59.566Z,6.66
2019-05-14T03:58:59.722Z,6.69
2019-05-14T03:59:59.845Z,6.64
2019-05-14T04:01:00.002Z,6.70
2019-05-14T04:01:59.590Z,6.62
2019-05-14T04:03:00.003Z,6.71
2019-05-14T04:03:59.301Z,6.62
2019-05-14T04:04:59.779Z,6.62
2019-05-14T04:05:59.365Z,6.64
2019-05-14T04:06:59.709Z,6.64
2019-05-14T04:07:59.807Z,6.70
2019-05-14T04:09:00.274Z,6.69
2019-05-14T04:09:59.331Z,6.64
2019-05-14T04:10:59.149Z,6.70
2019-05-14T04:11:59.378Z,6.62
2019-05-14T04:12:59.678Z,6.66
2019-05-14T04:13:59.879Z,6.64
2019-05-14T04:14:59.395Z,6.70
2019-05-14T04:15:59.789Z,6.62
2019-05-14T04:17:06.977Z,6.62
2019-05-14T04:17:59.556Z,6.67
2019-05-14T04:18:59.244Z,6.66
2019-05-14T04:19:59.709Z,6.62
2019-05-14T04:20:59.345Z,6.70
2019-05-14T04:21:59.617Z,6.70
2019-05-14T04:22:56.231Z,6.70
2019-05-14T04:23:58.817Z,6.70
2019-05-14T04:24:58.950Z,6.73
2019-05-14T04:25:56.159Z,6.76
2019-05-14T04:27:06.245Z,6.74
2019-05-14T04:27:59.583Z,6.76
2019-05-14T04:28:56.089Z,6.77
2019-05-14T04:29:58.757Z,6.77
2019-05-14T04:30:59.364Z,6.89
2019-05-14T04:31:56.022Z,6.87
2019-05-14T04:32:59.192Z,6.85
2019-05-14T04:33:58.978Z,6.88
2019-05-14T04:34:59.451Z,6.95
2019-05-14T04:35:55.926Z,6.94
2019-05-14T04:36:59.094Z,6.95
2019-05-14T04:37:58.715Z,6.92
2019-05-14T04:38:55.863Z,6.98
2019-05-14T04:39:59.128Z,6.95
2019-05-14T04:40:55.811Z,6.97
2019-05-14T04:41:55.797Z,7.03
2019-05-14T04:42:59.053Z,7.03
2019-05-14T04:43:59.188Z,7.15
2019-05-14T04:44:55.721Z,7.09
2019-05-14T04:45:58.864Z,7.07
2019-05-14T04:46:55.670Z,7.17
2019-05-14T04:47:55.647Z,7.15
2019-05-14T04:48:58.900Z,7.15
2019-05-14T04:49:55.599Z,7.16
2019-05-14T04:50:55.577Z,7.16
2019-05-14T04:51:55.556Z,7.16
2019-05-14T04:52:55.538Z,7.16
2019-05-14T04:53:55.513Z,7.06
2019-05-14T04:54:55.485Z,7.09
2019-05-14T04:55:55.467Z,7.13
2019-05-14T04:56:55.438Z,7.16
2019-05-14T04:57:55.415Z,7.16
2019-05-14T04:58:55.392Z,7.17
2019-05-14T04:59:55.378Z,7.12
2019-05-14T05:00:55.360Z,7.15
2019-05-14T05:01:55.321Z,7.15
2019-05-14T05:02:55.304Z,7.07
2019-05-14T05:03:55.277Z,7.16
2019-05-14T05:04:55.263Z,7.15
2019-05-14T05:05:55.233Z,7.27
2019-05-14T05:06:55.205Z,7.24
2019-05-14T05:07:55.186Z,7.25
2019-05-14T05:08:55.158Z,7.23
2019-05-14T05:09:55.140Z,7.23
2019-05-14T05:10:55.118Z,7.28
2019-05-14T05:11:55.087Z,7.27
2019-05-14T05:12:55.064Z,7.34
2019-05-14T05:13:55.071Z,7.30
2019-05-14T05:14:55.032Z,7.37
2019-05-14T05:15:54.999Z,7.34
2019-05-14T05:16:54.974Z,7.30
2019-05-14T05:17:54.955Z,7.30
2019-05-14T05:18:54.929Z,7.31
2019-05-14T05:19:54.904Z,7.32
2019-05-14T05:20:54.880Z,7.39
2019-05-14T05:21:54.856Z,7.46
2019-05-14T05:22:54.832Z,7.49
2019-05-14T05:23:54.811Z,7.46
2019-05-14T05:24:54.787Z,7.52
2019-05-14T05:25:54.773Z,7.42
2019-05-14T05:26:54.740Z,7.39
2019-05-14T05:27:56.511Z,7.46
2019-05-14T05:29:05.536Z,7.49
2019-05-14T05:29:54.670Z,7.49
2019-05-14T05:30:54.649Z,7.55
2019-05-14T05:31:54.632Z,7.52
2019-05-14T05:32:54.605Z,7.60
2019-05-14T05:33:54.582Z,7.64
2019-05-14T05:34:54.559Z,7.64
2019-05-14T05:35:54.538Z,7.64
2019-05-14T05:36:54.508Z,7.61
2019-05-14T05:37:54.486Z,7.71
2019-05-14T05:38:54.462Z,7.68
2019-05-14T05:39:54.446Z,7.49
2019-05-14T05:40:56.698Z,7.57
2019-05-14T05:41:54.393Z,7.57
2019-05-14T05:42:54.371Z,7.42
2019-05-14T05:43:54.362Z,7.55
2019-05-14T05:44:54.324Z,7.63
2019-05-14T05:45:54.302Z,7.71
2019-05-14T05:46:54.278Z,7.79
2019-05-14T05:47:58.207Z,7.71
2019-05-14T05:48:54.231Z,7.82
2019-05-14T05:49:54.208Z,7.85
2019-05-14T05:50:54.187Z,7.95
2019-05-14T05:51:54.161Z,7.98
2019-05-14T05:52:54.144Z,8.00
2019-05-14T05:53:54.127Z,8.02
2019-05-14T05:54:54.093Z,7.97
2019-05-14T05:55:54.080Z,7.95
2019-05-14T05:56:54.045Z,7.85
2019-05-14T05:57:54.029Z,7.89
2019-05-14T05:58:53.998Z,8.01
2019-05-14T05:59:53.982Z,7.95
2019-05-14T06:00:53.954Z,8.05
2019-05-14T06:01:54.383Z,8.04
2019-05-14T06:02:53.919Z,7.98
2019-05-14T06:03:53.887Z,8.02
2019-05-14T06:04:53.859Z,7.92
2019-05-14T06:05:53.837Z,7.90
2019-05-14T06:06:53.840Z,7.98
2019-05-14T06:07:53.799Z,7.97
2019-05-14T06:08:53.772Z,8.02
2019-05-14T06:09:53.745Z,8.07
2019-05-14T06:10:53.723Z,8.16
2019-05-14T06:11:53.699Z,8.22
2019-05-14T06:12:53.684Z,8.25
2019-05-14T06:13:53.653Z,8.22
2019-05-14T06:14:53.629Z,8.23
2019-05-14T06:15:53.608Z,8.23
2019-05-14T06:16:53.582Z,8.30
2019-05-14T06:17:53.560Z,8.38
2019-05-14T06:18:53.537Z,8.40
2019-05-14T06:19:53.518Z,8.52
2019-05-14T06:20:53.489Z,8.59
2019-05-14T06:21:53.476Z,8.61
2019-05-14T06:22:53.445Z,8.56
2019-05-14T06:23:53.424Z,8.59
2019-05-14T06:24:53.397Z,8.62
2019-05-14T06:25:53.379Z,8.61
2019-05-14T06:26:53.351Z,8.59
2019-05-14T06:27:53.329Z,8.55
2019-05-14T06:28:53.305Z,8.59
2019-05-14T06:29:54.489Z,8.58
2019-05-14T06:30:53.260Z,8.68
2019-05-14T06:31:53.236Z,8.58
2019-05-14T06:32:53.213Z,8.68
2019-05-14T06:33:53.196Z,8.83
2019-05-14T06:34:53.171Z,8.84
2019-05-14T06:35:53.154Z,8.89
2019-05-14T06:36:53.128Z,8.87
2019-05-14T06:37:53.101Z,8.98
2019-05-14T06:38:53.099Z,8.96
2019-05-14T06:39:53.055Z,9.01
2019-05-14T06:40:53.034Z,9.01
2019-05-14T06:41:53.008Z,8.98
2019-05-14T06:42:53.032Z,8.79
2019-05-14T06:43:52.965Z,8.94
2019-05-14T06:44:52.946Z,8.91
2019-05-14T06:45:52.919Z,8.89
2019-05-14T06:46:53.067Z,8.89
2019-05-14T06:47:52.874Z,9.01
2019-05-14T06:48:52.854Z,9.01
2019-05-14T06:49:52.829Z,9.05
2019-05-14T06:50:52.805Z,9.08
2019-05-14T06:51:52.783Z,9.08
2019-05-14T06:52:52.761Z,9.05
2019-05-14T06:53:52.737Z,9.05
2019-05-14T06:54:52.726Z,9.14
2019-05-14T06:55:52.696Z,9.14
2019-05-14T06:56:52.669Z,9.13
2019-05-14T06:57:52.647Z,9.14
2019-05-14T06:58:52.624Z,9.18
2019-05-14T06:59:52.607Z,9.24
2019-05-14T07:00:52.580Z,9.35
2019-05-14T07:01:52.556Z,9.48
2019-05-14T07:02:52.540Z,9.61
2019-05-14T07:03:52.515Z,9.69
2019-05-14T07:04:52.486Z,9.78
2019-05-14T07:05:52.466Z,9.86
2019-05-14T07:06:52.444Z,9.89
2019-05-14T07:07:52.422Z,9.81
2019-05-14T07:08:52.902Z,9.84
2019-05-14T07:09:52.381Z,9.86
2019-05-14T07:10:52.354Z,9.86
2019-05-14T07:11:52.339Z,9.81
2019-05-14T07:12:52.309Z,9.91
2019-05-14T07:13:52.288Z,9.97
2019-05-14T07:14:52.265Z,9.96
2019-05-14T07:15:52.244Z,10.09
2019-05-14T07:16:52.221Z,10.09
2019-05-14T07:17:52.198Z,10.09
2019-05-14T07:18:54.082Z,10.17
2019-05-14T07:19:52.157Z,10.17
2019-05-14T07:20:52.135Z,10.20
2019-05-14T07:21:52.109Z,10.15
2019-05-14T07:22:52.088Z,10.30
2019-05-14T07:23:52.067Z,10.30
2019-05-14T07:24:52.043Z,10.36
2019-05-14T07:25:52.021Z,10.41
2019-05-14T07:26:52.006Z,10.48
2019-05-14T07:27:51.982Z,10.59
2019-05-14T07:28:51.964Z,10.66
2019-05-14T07:29:51.934Z,10.78
2019-05-14T07:30:51.914Z,10.63
2019-05-14T07:31:51.891Z,10.64
2019-05-14T07:32:51.889Z,10.84
2019-05-14T07:33:51.846Z,10.89
2019-05-14T07:34:51.824Z,11.04
2019-05-14T07:35:51.810Z,11.09
2019-05-14T07:36:51.782Z,11.21
2019-05-14T07:37:51.772Z,11.35
2019-05-14T07:38:51.739Z,11.42
2019-05-14T07:39:51.721Z,11.42
2019-05-14T07:40:51.697Z,11.60
2019-05-14T07:41:51.674Z,11.52
2019-05-14T07:42:51.654Z,11.60
2019-05-14T07:43:51.635Z,11.57
2019-05-14T07:44:51.607Z,11.60
2019-05-14T07:45:51.585Z,11.61
2019-05-14T07:46:51.567Z,11.61
2019-05-14T07:47:51.542Z,11.75
2019-05-14T07:49:04.390Z,11.73
2019-05-14T07:49:51.498Z,11.72
2019-05-14T07:50:52.189Z,11.65
2019-05-14T07:51:51.469Z,11.55
2019-05-14T07:52:51.436Z,11.49
2019-05-14T07:53:51.414Z,11.60
2019-05-14T07:54:51.398Z,11.60
2019-05-14T07:55:51.391Z,11.79
2019-05-14T07:56:53.048Z,11.83
2019-05-14T07:57:51.330Z,12.12
2019-05-14T07:58:51.311Z,12.05
2019-05-14T07:59:51.293Z,12.07
2019-05-14T08:00:51.279Z,12.10
2019-05-14T08:01:51.248Z,12.20
2019-05-14T08:02:51.226Z,12.28
2019-05-14T08:03:51.202Z,12.46
2019-05-14T08:04:51.183Z,12.49
2019-05-14T08:05:51.163Z,12.53
2019-05-14T08:06:51.143Z,12.56
2019-05-14T08:07:51.120Z,12.72
2019-05-14T08:08:51.101Z,12.68
2019-05-14T08:09:51.078Z,12.72
2019-05-14T08:10:51.057Z,12.70
2019-05-14T08:11:51.044Z,12.70
2019-05-14T08:12:51.017Z,12.72
2019-05-14T08:13:50.994Z,12.70
2019-05-14T08:15:10.901Z,12.37
2019-05-14T08:15:50.952Z,12.23
2019-05-14T08:16:50.934Z,12.10
2019-05-14T08:17:50.911Z,12.10
2019-05-14T08:18:50.892Z,12.12
2019-05-14T08:19:50.872Z,12.17
2019-05-14T08:20:50.854Z,12.24
2019-05-14T08:21:50.830Z,12.12
2019-05-14T08:22:50.812Z,12.21
2019-05-14T08:23:50.790Z,12.24
2019-05-14T08:24:50.767Z,12.12
2019-05-14T08:25:50.752Z,12.09
2019-05-14T08:26:50.725Z,11.98
2019-05-14T08:27:50.712Z,12.05
2019-05-14T08:28:50.683Z,12.13
2019-05-14T08:29:50.670Z,12.27
2019-05-14T08:30:50.651Z,12.46
2019-05-14T08:31:50.627Z,12.49
2019-05-14T08:32:50.600Z,12.46
2019-05-14T08:33:50.583Z,12.49
2019-05-14T08:34:50.560Z,12.49
2019-05-14T08:35:50.543Z,12.54
2019-05-14T08:36:50.522Z,12.54
2019-05-14T08:38:03.471Z,12.85
2019-05-14T08:38:50.484Z,12.83
2019-05-14T08:39:50.461Z,12.79
2019-05-14T08:40:50.437Z,12.49
2019-05-14T08:41:59.602Z,12.72
2019-05-14T08:42:50.398Z,12.77
2019-05-14T08:43:50.377Z,12.79
2019-05-14T08:44:51.445Z,12.78
2019-05-14T08:45:50.339Z,12.70
2019-05-14T08:46:50.315Z,12.72
2019-05-14T08:47:50.295Z,12.82
2019-05-14T08:48:50.274Z,12.97
2019-05-14T08:49:50.996Z,13.05
2019-05-14T08:50:50.231Z,13.05
2019-05-14T08:51:50.213Z,12.90
2019-05-14T08:52:50.191Z,12.70
2019-05-14T08:53:50.730Z,12.56
2019-05-14T08:55:05.421Z,12.71
2019-05-14T08:55:50.137Z,12.83
2019-05-14T08:56:50.115Z,13.05
2019-05-14T08:57:50.245Z,13.01
2019-05-14T08:58:50.076Z,13.04
2019-05-14T08:59:50.049Z,13.14
2019-05-14T09:00:50.028Z,13.29
2019-05-14T09:02:02.353Z,13.46
2019-05-14T09:02:49.997Z,13.57
2019-05-14T09:03:50.015Z,13.64
2019-05-14T09:04:53.852Z,13.70
2019-05-14T09:05:49.927Z,13.15
2019-05-14T09:06:49.906Z,12.93
2019-05-14T09:07:49.892Z,12.75
2019-05-14T09:08:50.171Z,12.68
2019-05-14T09:09:49.847Z,12.50
2019-05-14T09:10:49.941Z,12.50
2019-05-14T09:11:50.532Z,12.47
2019-05-14T09:12:49.789Z,12.56
2019-05-14T09:13:49.772Z,12.83
2019-05-14T09:14:49.751Z,12.85
2019-05-14T09:15:49.724Z,12.75
2019-05-14T09:16:50.978Z,12.79
2019-05-14T09:17:49.685Z,12.82
2019-05-14T09:18:49.664Z,12.78
2019-05-14T09:20:02.179Z,12.96
2019-05-14T09:20:49.621Z,13.17
2019-05-14T09:21:49.728Z,13.15
2019-05-14T09:22:49.585Z,13.36
2019-05-14T09:23:49.568Z,13.38
2019-05-14T09:24:49.541Z,13.39
2019-05-14T09:25:53.230Z,13.54
2019-05-14T09:26:49.503Z,13.57
2019-05-14T09:27:49.569Z,13.78
2019-05-14T09:28:49.458Z,14.02
2019-05-14T09:29:49.442Z,14.03
2019-05-14T09:30:49.421Z,14.15
2019-05-14T09:31:49.725Z,14.24
2019-05-14T09:32:49.604Z,14.45
2019-05-14T09:33:49.733Z,14.29
2019-05-14T09:34:49.341Z,14.09
2019-05-14T09:35:49.591Z,14.04
2019-05-14T09:36:49.304Z,14.20
2019-05-14T09:37:51.291Z,14.24
2019-05-14T09:38:49.352Z,14.47
2019-05-14T09:39:49.243Z,14.54
2019-05-14T09:40:49.218Z,14.68
2019-05-14T09:41:49.201Z,14.45
2019-05-14T09:42:49.923Z,14.55
2019-05-14T09:43:49.158Z,14.50
2019-05-14T09:44:49.219Z,14.42
2019-05-14T09:45:49.123Z,14.21
2019-05-14T09:46:49.981Z,14.21
2019-05-14T09:47:50.767Z,14.27
2019-05-14T09:48:49.061Z,14.17
2019-05-14T09:49:49.275Z,13.99
2019-05-14T09:50:49.113Z,14.00
2019-05-14T09:51:49.005Z,13.71
2019-05-14T09:52:49.451Z,13.71
2019-05-14T09:53:49.254Z,13.78
2019-05-14T09:54:49.647Z,13.96
2019-05-14T09:55:49.217Z,13.96
2019-05-14T09:56:48.903Z,14.21
2019-05-14T09:57:49.197Z,14.29
2019-05-14T09:58:49.463Z,14.57
2019-05-14T09:59:48.844Z,14.64
2019-05-14T10:00:48.824Z,14.65
2019-05-14T10:01:50.619Z,14.80
2019-05-14T10:02:49.434Z,14.80
2019-05-14T10:03:49.543Z,14.81
2019-05-14T10:04:49.206Z,14.91
2019-05-14T10:05:50.141Z,14.92
2019-05-14T10:06:48.716Z,14.91
2019-05-14T10:07:49.465Z,14.98
2019-05-14T10:08:48.770Z,14.70
2019-05-14T10:09:49.233Z,14.96
2019-05-14T10:10:48.984Z,15.09
2019-05-14T10:11:48.771Z,14.96
2019-05-14T10:12:54.174Z,15.14
2019-05-14T10:13:48.608Z,15.25
2019-05-14T10:14:48.836Z,15.07
2019-05-14T10:15:48.712Z,14.98
2019-05-14T10:16:49.177Z,14.62
2019-05-14T10:17:49.984Z,14.69
2019-05-14T10:18:49.763Z,14.77
2019-05-14T10:19:49.851Z,14.99
2019-05-14T10:20:49.373Z,15.01
2019-05-14T10:21:49.335Z,15.09
2019-05-14T10:22:48.400Z,15.19
2019-05-14T10:23:48.385Z,15.20
2019-05-14T10:24:48.367Z,15.16
2019-05-14T10:25:48.356Z,15.16
2019-05-14T10:26:49.184Z,15.21
2019-05-14T10:27:48.686Z,14.99
2019-05-14T10:28:48.642Z,15.03
2019-05-14T10:29:48.365Z,14.88
2019-05-14T10:30:49.101Z,14.92
2019-05-14T10:31:48.681Z,15.07
2019-05-14T10:32:49.296Z,15.21
2019-05-14T10:33:48.717Z,15.44
2019-05-14T10:34:48.654Z,15.50
2019-05-14T10:35:48.570Z,15.13
2019-05-14T10:36:48.134Z,15.11
2019-05-14T10:37:48.127Z,15.14
2019-05-14T10:38:48.100Z,15.13
2019-05-14T10:39:48.087Z,15.19
2019-05-14T10:40:48.056Z,15.03
2019-05-14T10:41:48.044Z,14.83
2019-05-14T10:42:49.480Z,14.75
2019-05-14T10:43:49.557Z,14.68
2019-05-14T10:44:47.984Z,14.65
2019-05-14T10:45:49.440Z,14.69
2019-05-14T10:46:47.944Z,14.55
2019-05-14T10:47:49.396Z,14.54
2019-05-14T10:48:47.910Z,14.68
2019-05-14T10:49:47.892Z,14.69
2019-05-14T10:50:59.016Z,14.81
2019-05-14T10:51:48.031Z,15.02
2019-05-14T10:52:48.869Z,15.17
2019-05-14T10:53:48.820Z,15.01
2019-05-14T10:54:55.469Z,15.09
2019-05-14T10:55:48.584Z,15.02
2019-05-14T10:56:49.491Z,15.06
2019-05-14T10:57:51.428Z,14.96
2019-05-14T10:58:49.075Z,14.96
2019-05-14T10:59:47.692Z,14.83
2019-05-14T11:00:49.490Z,14.40
2019-05-14T11:01:47.665Z,14.37
2019-05-14T11:02:49.186Z,14.51
2019-05-14T11:03:48.426Z,14.69
2019-05-14T11:04:48.377Z,14.62
2019-05-14T11:05:48.162Z,14.54
2019-05-14T11:06:49.110Z,14.45
2019-05-14T11:07:48.179Z,14.20
2019-05-14T11:08:49.125Z,14.24
2019-05-14T11:09:48.613Z,14.35
2019-05-14T11:10:49.866Z,14.51
2019-05-14T11:11:47.467Z,14.65
2019-05-14T11:12:50.164Z,14.81
2019-05-14T11:13:47.431Z,15.11
2019-05-14T11:14:49.420Z,15.10
2019-05-14T11:15:48.623Z,15.09
2019-05-14T11:16:48.544Z,15.19
2019-05-14T11:17:48.728Z,15.16
2019-05-14T11:18:49.643Z,15.09
2019-05-14T11:19:47.890Z,15.27
2019-05-14T11:20:51.518Z,15.13
2019-05-14T11:21:48.409Z,15.23
2019-05-14T11:22:49.144Z,15.25
2019-05-14T11:23:49.125Z,15.34
2019-05-14T11:24:49.197Z,15.36
2019-05-14T11:25:48.760Z,15.35
2019-05-14T11:26:48.849Z,15.50
2019-05-14T11:27:49.340Z,15.46
2019-05-14T11:28:49.101Z,15.62
2019-05-14T11:29:49.111Z,15.49
2019-05-14T11:30:49.445Z,15.41
2019-05-14T11:31:48.457Z,15.27
2019-05-14T11:32:49.291Z,15.13
2019-05-14T11:33:49.418Z,15.29
2019-05-14T11:34:47.027Z,15.35
2019-05-14T11:35:47.012Z,15.47
2019-05-14T11:36:49.450Z,15.44
2019-05-14T11:37:48.034Z,15.65
2019-05-14T11:38:46.964Z,15.65
2019-05-14T11:39:48.697Z,15.50
2019-05-14T11:40:49.465Z,15.47
2019-05-14T11:41:49.121Z,15.60
2019-05-14T11:42:49.318Z,15.68
2019-05-14T11:43:49.378Z,15.64
2019-05-14T11:44:48.826Z,15.53
2019-05-14T11:45:48.466Z,15.23
2019-05-14T11:46:52.103Z,15.25
2019-05-14T11:47:48.787Z,15.17
2019-05-14T11:48:49.047Z,15.14
2019-05-14T11:49:49.147Z,15.17
2019-05-14T11:50:49.259Z,15.16
2019-05-14T11:52:00.643Z,15.09
2019-05-14T11:52:48.417Z,15.17
2019-05-14T11:53:49.191Z,15.27
2019-05-14T11:54:49.216Z,15.44
2019-05-14T11:55:49.781Z,15.44
2019-05-14T11:56:48.317Z,15.69
2019-05-14T11:57:48.556Z,15.75
2019-05-14T11:58:46.573Z,15.87
2019-05-14T11:59:46.553Z,16.01
2019-05-14T12:00:46.562Z,16.11
2019-05-14T12:01:49.198Z,16.02
2019-05-14T12:02:46.509Z,15.75
2019-05-14T12:03:46.476Z,15.64
2019-05-14T12:04:46.460Z,15.46
2019-05-14T12:05:49.126Z,15.60
2019-05-14T12:06:46.422Z,15.62
2019-05-14T12:07:46.401Z,15.64
2019-05-14T12:08:46.381Z,15.67
2019-05-14T12:09:46.366Z,15.65
2019-05-14T12:10:46.368Z,15.72
2019-05-14T12:11:46.333Z,15.92
2019-05-14T12:12:48.330Z,15.82
2019-05-14T12:13:48.660Z,15.86
2019-05-14T12:14:48.379Z,15.96
2019-05-14T12:15:48.562Z,15.80
2019-05-14T12:16:49.218Z,15.36
2019-05-14T12:17:46.216Z,15.27
2019-05-14T12:18:48.355Z,15.20
2019-05-14T12:19:48.308Z,14.98
2019-05-14T12:20:46.164Z,15.16
2019-05-14T12:22:02.742Z,15.25
2019-05-14T12:22:48.473Z,15.41
2019-05-14T12:23:46.102Z,15.44
2019-05-14T12:24:46.084Z,15.57
2019-05-14T12:25:46.065Z,15.75
2019-05-14T12:26:46.047Z,15.74
2019-05-14T12:27:46.025Z,15.71
2019-05-14T12:28:46.006Z,15.64
2019-05-14T12:29:49.460Z,15.28
2019-05-14T12:30:48.738Z,15.27
2019-05-14T12:31:50.348Z,15.23
2019-05-14T12:32:45.931Z,15.38
2019-05-14T12:33:48.649Z,15.50
2019-05-14T12:34:48.702Z,15.50
2019-05-14T12:35:45.876Z,15.62
2019-05-14T12:36:45.873Z,15.72
2019-05-14T12:37:45.840Z,15.82
2019-05-14T12:38:45.823Z,15.90
2019-05-14T12:39:45.800Z,16.01
2019-05-14T12:40:45.782Z,16.14
2019-05-14T12:41:45.760Z,16.17
2019-05-14T12:42:45.751Z,16.20
2019-05-14T12:43:45.723Z,16.04
2019-05-14T12:44:45.707Z,16.20
2019-05-14T12:45:45.685Z,16.02
2019-05-14T12:46:45.668Z,16.01
2019-05-14T12:47:45.657Z,16.02
2019-05-14T12:48:45.637Z,16.08
2019-05-14T12:49:48.146Z,16.05
2019-05-14T12:50:45.593Z,15.97
2019-05-14T12:51:45.573Z,16.01
2019-05-14T12:52:45.561Z,15.75
2019-05-14T12:53:45.538Z,15.38
2019-05-14T12:54:45.519Z,15.23
2019-05-14T12:55:45.500Z,15.36
2019-05-14T12:56:45.481Z,15.51
2019-05-14T12:57:45.466Z,15.56
2019-05-14T12:58:46.099Z,15.57
2019-05-14T12:59:45.425Z,15.60
2019-05-14T13:00:45.404Z,15.49
2019-05-14T13:01:45.385Z,15.35
2019-05-14T13:02:45.367Z,15.38
2019-05-14T13:03:45.352Z,15.53
2019-05-14T13:04:45.330Z,15.62
2019-05-14T13:05:45.311Z,15.47